sensor_id;sensor_type;location;lat;lon;timestamp;P1;durP1;ratioP1;P2;durP2;ratioP2
17382;SDS011;8809;51.892;8.384;2022-11-14T00:00:14;13.88;;;8.85;;
17382;SDS011;8809;51.892;8.384;2022-11-14T00:02:42;12.75;;;8.52;;
17382;SDS011;8809;51.892;8.384;2022-11-14T00:05:09;14.27;;;8.43;;
17382;SDS011;8809;51.892;8.384;2022-11-14T00:07:36;14.35;;;9.02;;
17382;SDS011;8809;51.892;8.384;2022-11-14T00:10:06;14.77;;;9.05;;
17382;SDS011;8809;51.892;8.384;2022-11-14T00:12:36;13.90;;;8.90;;
17382;SDS011;8809;51.892;8.384;2022-11-14T00:15:03;15.82;;;9.88;;
17382;SDS011;8809;51.892;8.384;2022-11-14T00:17:32;13.80;;;9.20;;
17382;SDS011;8809;51.892;8.384;2022-11-14T00:19:59;12.50;;;8.32;;
17382;SDS011;8809;51.892;8.384;2022-11-14T00:22:40;14.38;;;9.07;;
17382;SDS011;8809;51.892;8.384;2022-11-14T00:25:08;12.18;;;8.25;;
17382;SDS011;8809;51.892;8.384;2022-11-14T00:27:36;14.55;;;8.93;;
17382;SDS011;8809;51.892;8.384;2022-11-14T00:30:13;15.98;;;9.00;;
17382;SDS011;8809;51.892;8.384;2022-11-14T00:32:42;15.27;;;9.82;;
17382;SDS011;8809;51.892;8.384;2022-11-14T00:35:09;13.48;;;8.95;;
17382;SDS011;8809;51.892;8.384;2022-11-14T00:37:35;13.50;;;8.40;;
17382;SDS011;8809;51.892;8.384;2022-11-14T00:42:47;13.30;;;8.73;;
17382;SDS011;8809;51.892;8.384;2022-11-14T00:45:14;14.30;;;9.05;;
17382;SDS011;8809;51.892;8.384;2022-11-14T00:47:43;13.43;;;8.82;;
17382;SDS011;8809;51.892;8.384;2022-11-14T00:50:14;15.60;;;9.35;;
17382;SDS011;8809;51.892;8.384;2022-11-14T00:52:41;12.85;;;8.93;;
17382;SDS011;8809;51.892;8.384;2022-11-14T00:55:08;14.55;;;8.73;;
17382;SDS011;8809;51.892;8.384;2022-11-14T00:57:35;14.40;;;8.57;;
17382;SDS011;8809;51.892;8.384;2022-11-14T01:00:14;13.95;;;8.95;;
17382;SDS011;8809;51.892;8.384;2022-11-14T01:02:42;13.43;;;9.00;;
17382;SDS011;8809;51.892;8.384;2022-11-14T01:05:09;15.45;;;9.15;;
17382;SDS011;8809;51.892;8.384;2022-11-14T01:07:36;13.82;;;8.77;;
17382;SDS011;8809;51.892;8.384;2022-11-14T01:10:13;14.60;;;9.23;;
17382;SDS011;8809;51.892;8.384;2022-11-14T01:12:40;12.30;;;8.57;;
17382;SDS011;8809;51.892;8.384;2022-11-14T01:15:07;13.35;;;8.80;;
17382;SDS011;8809;51.892;8.384;2022-11-14T01:17:35;12.85;;;8.80;;
17382;SDS011;8809;51.892;8.384;2022-11-14T01:20:16;12.73;;;8.07;;
17382;SDS011;8809;51.892;8.384;2022-11-14T01:22:43;13.32;;;8.48;;
17382;SDS011;8809;51.892;8.384;2022-11-14T01:25:09;12.65;;;7.93;;
17382;SDS011;8809;51.892;8.384;2022-11-14T01:27:36;12.48;;;8.30;;
17382;SDS011;8809;51.892;8.384;2022-11-14T01:30:13;13.95;;;8.82;;
17382;SDS011;8809;51.892;8.384;2022-11-14T01:32:40;15.02;;;8.73;;
17382;SDS011;8809;51.892;8.384;2022-11-14T01:35:07;11.98;;;7.80;;
17382;SDS011;8809;51.892;8.384;2022-11-14T01:37:36;13.60;;;8.88;;
17382;SDS011;8809;51.892;8.384;2022-11-14T01:40:13;12.63;;;8.63;;
17382;SDS011;8809;51.892;8.384;2022-11-14T01:42:40;11.80;;;8.43;;
17382;SDS011;8809;51.892;8.384;2022-11-14T01:48:17;14.60;;;8.27;;
17382;SDS011;8809;51.892;8.384;2022-11-14T01:50:46;12.32;;;7.72;;
17382;SDS011;8809;51.892;8.384;2022-11-14T01:53:19;12.93;;;7.90;;
17382;SDS011;8809;51.892;8.384;2022-11-14T01:55:46;10.85;;;7.47;;
17382;SDS011;8809;51.892;8.384;2022-11-14T01:58:13;12.73;;;7.90;;
17382;SDS011;8809;51.892;8.384;2022-11-14T02:00:41;10.25;;;7.22;;
17382;SDS011;8809;51.892;8.384;2022-11-14T02:03:09;13.13;;;8.65;;
17382;SDS011;8809;51.892;8.384;2022-11-14T02:05:38;12.52;;;8.50;;
17382;SDS011;8809;51.892;8.384;2022-11-14T02:08:06;12.73;;;7.97;;
17382;SDS011;8809;51.892;8.384;2022-11-14T02:10:38;13.25;;;8.30;;
17382;SDS011;8809;51.892;8.384;2022-11-14T02:13:05;11.65;;;8.05;;
17382;SDS011;8809;51.892;8.384;2022-11-14T02:15:32;12.18;;;7.80;;
17382;SDS011;8809;51.892;8.384;2022-11-14T02:18:00;12.68;;;8.02;;
17382;SDS011;8809;51.892;8.384;2022-11-14T02:20:29;12.70;;;8.00;;
17382;SDS011;8809;51.892;8.384;2022-11-14T02:23:00;13.50;;;8.70;;
17382;SDS011;8809;51.892;8.384;2022-11-14T02:25:27;14.52;;;8.75;;
17382;SDS011;8809;51.892;8.384;2022-11-14T02:27:54;12.00;;;7.80;;
17382;SDS011;8809;51.892;8.384;2022-11-14T02:30:23;12.98;;;8.90;;
17382;SDS011;8809;51.892;8.384;2022-11-14T02:32:50;13.40;;;8.40;;
17382;SDS011;8809;51.892;8.384;2022-11-14T02:35:17;13.80;;;8.45;;
17382;SDS011;8809;51.892;8.384;2022-11-14T02:37:46;12.85;;;8.30;;
17382;SDS011;8809;51.892;8.384;2022-11-14T02:40:13;13.43;;;8.60;;
17382;SDS011;8809;51.892;8.384;2022-11-14T02:42:40;11.65;;;8.38;;
17382;SDS011;8809;51.892;8.384;2022-11-14T02:45:07;13.85;;;8.93;;
17382;SDS011;8809;51.892;8.384;2022-11-14T02:47:35;13.57;;;8.52;;
17382;SDS011;8809;51.892;8.384;2022-11-14T02:50:14;14.60;;;8.55;;
17382;SDS011;8809;51.892;8.384;2022-11-14T02:52:41;12.38;;;8.32;;
17382;SDS011;8809;51.892;8.384;2022-11-14T02:55:10;14.43;;;8.65;;
17382;SDS011;8809;51.892;8.384;2022-11-14T02:57:36;13.27;;;8.40;;
17382;SDS011;8809;51.892;8.384;2022-11-14T03:02:52;15.10;;;8.82;;
17382;SDS011;8809;51.892;8.384;2022-11-14T03:05:19;12.70;;;8.75;;
17382;SDS011;8809;51.892;8.384;2022-11-14T03:07:46;13.40;;;8.13;;
17382;SDS011;8809;51.892;8.384;2022-11-14T03:10:15;14.30;;;8.75;;
17382;SDS011;8809;51.892;8.384;2022-11-14T03:12:42;12.50;;;8.13;;
17382;SDS011;8809;51.892;8.384;2022-11-14T03:15:09;10.90;;;7.45;;
17382;SDS011;8809;51.892;8.384;2022-11-14T03:17:36;13.30;;;8.43;;
17382;SDS011;8809;51.892;8.384;2022-11-14T03:20:15;14.52;;;8.77;;
17382;SDS011;8809;51.892;8.384;2022-11-14T03:22:42;13.48;;;8.80;;
17382;SDS011;8809;51.892;8.384;2022-11-14T03:25:09;14.55;;;7.95;;
17382;SDS011;8809;51.892;8.384;2022-11-14T03:27:37;12.02;;;8.00;;
17382;SDS011;8809;51.892;8.384;2022-11-14T03:30:14;14.82;;;8.60;;
17382;SDS011;8809;51.892;8.384;2022-11-14T03:32:41;14.25;;;8.73;;
17382;SDS011;8809;51.892;8.384;2022-11-14T03:35:08;11.90;;;7.60;;
17382;SDS011;8809;51.892;8.384;2022-11-14T03:37:35;11.80;;;7.45;;
17382;SDS011;8809;51.892;8.384;2022-11-14T03:40:14;13.90;;;8.52;;
17382;SDS011;8809;51.892;8.384;2022-11-14T03:42:43;14.18;;;8.48;;
17382;SDS011;8809;51.892;8.384;2022-11-14T03:45:10;12.30;;;8.00;;
17382;SDS011;8809;51.892;8.384;2022-11-14T03:47:36;13.27;;;8.10;;
17382;SDS011;8809;51.892;8.384;2022-11-14T03:50:13;14.35;;;8.05;;
17382;SDS011;8809;51.892;8.384;2022-11-14T03:52:40;14.40;;;9.00;;
17382;SDS011;8809;51.892;8.384;2022-11-14T03:55:07;14.05;;;8.90;;
17382;SDS011;8809;51.892;8.384;2022-11-14T03:57:34;14.25;;;8.05;;
17382;SDS011;8809;51.892;8.384;2022-11-14T04:02:44;12.55;;;8.70;;
17382;SDS011;8809;51.892;8.384;2022-11-14T04:05:11;12.88;;;7.95;;
17382;SDS011;8809;51.892;8.384;2022-11-14T04:07:39;14.18;;;8.38;;
17382;SDS011;8809;51.892;8.384;2022-11-14T04:10:06;14.30;;;8.95;;
17382;SDS011;8809;51.892;8.384;2022-11-14T04:12:37;14.77;;;8.25;;
17382;SDS011;8809;51.892;8.384;2022-11-14T04:15:04;13.35;;;8.73;;
17382;SDS011;8809;51.892;8.384;2022-11-14T04:17:33;15.57;;;9.15;;
17382;SDS011;8809;51.892;8.384;2022-11-14T04:20:00;14.00;;;8.02;;
17382;SDS011;8809;51.892;8.384;2022-11-14T04:22:40;12.88;;;8.63;;
17382;SDS011;8809;51.892;8.384;2022-11-14T04:25:08;14.57;;;8.85;;
17382;SDS011;8809;51.892;8.384;2022-11-14T04:27:35;11.93;;;7.93;;
17382;SDS011;8809;51.892;8.384;2022-11-14T04:30:14;13.25;;;8.25;;
17382;SDS011;8809;51.892;8.384;2022-11-14T04:32:44;11.60;;;8.02;;
17382;SDS011;8809;51.892;8.384;2022-11-14T04:35:12;14.10;;;8.90;;
17382;SDS011;8809;51.892;8.384;2022-11-14T04:37:39;15.00;;;9.27;;
17382;SDS011;8809;51.892;8.384;2022-11-14T04:40:14;12.88;;;7.88;;
17382;SDS011;8809;51.892;8.384;2022-11-14T04:42:41;11.45;;;7.95;;
17382;SDS011;8809;51.892;8.384;2022-11-14T04:45:08;15.00;;;9.68;;
17382;SDS011;8809;51.892;8.384;2022-11-14T04:47:35;13.32;;;8.75;;
17382;SDS011;8809;51.892;8.384;2022-11-14T04:52:44;15.13;;;8.60;;
17382;SDS011;8809;51.892;8.384;2022-11-14T04:55:11;13.38;;;8.68;;
17382;SDS011;8809;51.892;8.384;2022-11-14T04:57:38;13.98;;;9.00;;
17382;SDS011;8809;51.892;8.384;2022-11-14T05:00:14;13.60;;;9.20;;
17382;SDS011;8809;51.892;8.384;2022-11-14T05:02:41;13.93;;;8.60;;
17382;SDS011;8809;51.892;8.384;2022-11-14T05:05:08;15.02;;;9.95;;
17382;SDS011;8809;51.892;8.384;2022-11-14T05:07:36;13.05;;;8.73;;
17382;SDS011;8809;51.892;8.384;2022-11-14T05:10:15;15.82;;;9.73;;
17382;SDS011;8809;51.892;8.384;2022-11-14T05:12:42;15.63;;;9.90;;
17382;SDS011;8809;51.892;8.384;2022-11-14T05:15:09;15.30;;;10.10;;
17382;SDS011;8809;51.892;8.384;2022-11-14T05:17:36;16.73;;;9.80;;
17382;SDS011;8809;51.892;8.384;2022-11-14T05:20:13;13.93;;;8.98;;
17382;SDS011;8809;51.892;8.384;2022-11-14T05:22:42;13.68;;;9.45;;
17382;SDS011;8809;51.892;8.384;2022-11-14T05:25:09;15.20;;;9.93;;
17382;SDS011;8809;51.892;8.384;2022-11-14T05:27:36;16.27;;;10.50;;
17382;SDS011;8809;51.892;8.384;2022-11-14T05:30:10;13.98;;;9.32;;
17382;SDS011;8809;51.892;8.384;2022-11-14T05:32:39;16.33;;;9.93;;
17382;SDS011;8809;51.892;8.384;2022-11-14T05:35:07;15.23;;;9.43;;
17382;SDS011;8809;51.892;8.384;2022-11-14T05:37:34;15.80;;;10.18;;
17382;SDS011;8809;51.892;8.384;2022-11-14T05:40:17;16.23;;;9.85;;
17382;SDS011;8809;51.892;8.384;2022-11-14T05:42:44;15.45;;;9.55;;
17382;SDS011;8809;51.892;8.384;2022-11-14T05:45:11;15.35;;;9.85;;
17382;SDS011;8809;51.892;8.384;2022-11-14T05:47:38;15.57;;;9.63;;
17382;SDS011;8809;51.892;8.384;2022-11-14T05:50:14;18.83;;;12.93;;
17382;SDS011;8809;51.892;8.384;2022-11-14T05:52:41;15.80;;;10.35;;
17382;SDS011;8809;51.892;8.384;2022-11-14T05:55:08;15.00;;;9.82;;
17382;SDS011;8809;51.892;8.384;2022-11-14T05:57:36;15.85;;;9.32;;
17382;SDS011;8809;51.892;8.384;2022-11-14T06:00:15;15.55;;;10.40;;
17382;SDS011;8809;51.892;8.384;2022-11-14T06:02:42;15.10;;;9.90;;
17382;SDS011;8809;51.892;8.384;2022-11-14T06:05:10;17.73;;;11.57;;
17382;SDS011;8809;51.892;8.384;2022-11-14T06:07:37;14.93;;;10.38;;
17382;SDS011;8809;51.892;8.384;2022-11-14T06:10:16;14.35;;;9.45;;
17382;SDS011;8809;51.892;8.384;2022-11-14T06:12:44;14.55;;;9.75;;
17382;SDS011;8809;51.892;8.384;2022-11-14T06:15:13;15.52;;;9.10;;
17382;SDS011;8809;51.892;8.384;2022-11-14T06:17:39;14.52;;;9.90;;
17382;SDS011;8809;51.892;8.384;2022-11-14T06:20:16;14.23;;;9.38;;
17382;SDS011;8809;51.892;8.384;2022-11-14T06:22:43;16.33;;;10.57;;
17382;SDS011;8809;51.892;8.384;2022-11-14T06:25:09;15.68;;;10.00;;
17382;SDS011;8809;51.892;8.384;2022-11-14T06:27:36;15.95;;;10.10;;
17382;SDS011;8809;51.892;8.384;2022-11-14T06:30:15;14.25;;;9.95;;
17382;SDS011;8809;51.892;8.384;2022-11-14T06:32:42;14.95;;;9.80;;
17382;SDS011;8809;51.892;8.384;2022-11-14T06:35:09;14.98;;;9.15;;
17382;SDS011;8809;51.892;8.384;2022-11-14T06:37:36;17.23;;;10.27;;
17382;SDS011;8809;51.892;8.384;2022-11-14T06:40:15;15.65;;;9.75;;
17382;SDS011;8809;51.892;8.384;2022-11-14T06:42:42;16.98;;;10.15;;
17382;SDS011;8809;51.892;8.384;2022-11-14T06:45:09;16.00;;;10.10;;
17382;SDS011;8809;51.892;8.384;2022-11-14T06:47:37;15.98;;;10.38;;
17382;SDS011;8809;51.892;8.384;2022-11-14T06:50:14;16.38;;;10.60;;
17382;SDS011;8809;51.892;8.384;2022-11-14T06:52:41;14.35;;;9.40;;
17382;SDS011;8809;51.892;8.384;2022-11-14T06:55:08;14.40;;;9.75;;
17382;SDS011;8809;51.892;8.384;2022-11-14T06:57:35;15.90;;;10.07;;
17382;SDS011;8809;51.892;8.384;2022-11-14T07:00:13;16.35;;;9.90;;
17382;SDS011;8809;51.892;8.384;2022-11-14T07:02:41;17.10;;;10.35;;
17382;SDS011;8809;51.892;8.384;2022-11-14T07:05:11;17.17;;;10.68;;
17382;SDS011;8809;51.892;8.384;2022-11-14T07:07:37;16.33;;;9.63;;
17382;SDS011;8809;51.892;8.384;2022-11-14T07:10:06;14.80;;;9.40;;
17382;SDS011;8809;51.892;8.384;2022-11-14T07:12:41;13.80;;;9.32;;
17382;SDS011;8809;51.892;8.384;2022-11-14T07:15:08;14.27;;;9.52;;
17382;SDS011;8809;51.892;8.384;2022-11-14T07:17:35;15.63;;;9.45;;
17382;SDS011;8809;51.892;8.384;2022-11-14T07:20:16;16.95;;;10.85;;
17382;SDS011;8809;51.892;8.384;2022-11-14T07:22:44;15.23;;;9.52;;
17382;SDS011;8809;51.892;8.384;2022-11-14T07:25:13;13.20;;;8.68;;
17382;SDS011;8809;51.892;8.384;2022-11-14T07:27:40;13.25;;;8.85;;
17382;SDS011;8809;51.892;8.384;2022-11-14T07:30:20;12.75;;;8.32;;
17382;SDS011;8809;51.892;8.384;2022-11-14T07:32:53;14.18;;;9.05;;
17382;SDS011;8809;51.892;8.384;2022-11-14T07:35:21;12.80;;;8.32;;
17382;SDS011;8809;51.892;8.384;2022-11-14T07:37:49;11.50;;;8.05;;
17382;SDS011;8809;51.892;8.384;2022-11-14T07:40:18;12.30;;;8.35;;
17382;SDS011;8809;51.892;8.384;2022-11-14T07:42:45;14.23;;;9.27;;
17382;SDS011;8809;51.892;8.384;2022-11-14T07:45:12;16.05;;;9.65;;
17382;SDS011;8809;51.892;8.384;2022-11-14T07:47:39;12.07;;;8.43;;
17382;SDS011;8809;51.892;8.384;2022-11-14T07:53:00;14.85;;;9.10;;
17382;SDS011;8809;51.892;8.384;2022-11-14T07:55:27;13.35;;;9.45;;
17382;SDS011;8809;51.892;8.384;2022-11-14T07:57:54;17.08;;;10.95;;
17382;SDS011;8809;51.892;8.384;2022-11-14T08:00:24;15.75;;;10.88;;
17382;SDS011;8809;51.892;8.384;2022-11-14T08:02:51;15.27;;;9.40;;
17382;SDS011;8809;51.892;8.384;2022-11-14T08:05:18;15.73;;;10.55;;
17382;SDS011;8809;51.892;8.384;2022-11-14T08:07:46;15.65;;;9.63;;
17382;SDS011;8809;51.892;8.384;2022-11-14T08:10:16;14.77;;;9.60;;
17382;SDS011;8809;51.892;8.384;2022-11-14T08:12:43;16.20;;;9.73;;
17382;SDS011;8809;51.892;8.384;2022-11-14T08:15:11;14.57;;;9.85;;
17382;SDS011;8809;51.892;8.384;2022-11-14T08:17:38;15.95;;;10.82;;
17382;SDS011;8809;51.892;8.384;2022-11-14T08:20:14;15.55;;;11.23;;
17382;SDS011;8809;51.892;8.384;2022-11-14T08:22:41;17.58;;;11.13;;
17382;SDS011;8809;51.892;8.384;2022-11-14T08:25:10;15.65;;;10.98;;
17382;SDS011;8809;51.892;8.384;2022-11-14T08:27:36;18.75;;;11.98;;
17382;SDS011;8809;51.892;8.384;2022-11-14T08:32:55;16.42;;;11.10;;
17382;SDS011;8809;51.892;8.384;2022-11-14T08:35:22;14.43;;;9.82;;
17382;SDS011;8809;51.892;8.384;2022-11-14T08:37:49;15.15;;;10.27;;
17382;SDS011;8809;51.892;8.384;2022-11-14T08:40:17;15.45;;;10.27;;
17382;SDS011;8809;51.892;8.384;2022-11-14T08:42:44;18.52;;;12.10;;
17382;SDS011;8809;51.892;8.384;2022-11-14T08:45:11;16.55;;;11.70;;
17382;SDS011;8809;51.892;8.384;2022-11-14T08:47:38;15.55;;;11.25;;
17382;SDS011;8809;51.892;8.384;2022-11-14T08:52:56;18.50;;;12.25;;
17382;SDS011;8809;51.892;8.384;2022-11-14T08:55:24;17.20;;;11.43;;
17382;SDS011;8809;51.892;8.384;2022-11-14T08:57:51;16.83;;;9.95;;
17382;SDS011;8809;51.892;8.384;2022-11-14T09:00:19;15.50;;;9.35;;
17382;SDS011;8809;51.892;8.384;2022-11-14T09:02:47;16.23;;;10.80;;
17382;SDS011;8809;51.892;8.384;2022-11-14T09:05:13;17.75;;;11.20;;
17382;SDS011;8809;51.892;8.384;2022-11-14T09:07:40;16.15;;;10.50;;
17382;SDS011;8809;51.892;8.384;2022-11-14T09:10:08;15.38;;;10.95;;
17382;SDS011;8809;51.892;8.384;2022-11-14T09:12:45;15.32;;;10.15;;
17382;SDS011;8809;51.892;8.384;2022-11-14T09:15:12;15.95;;;11.35;;
17382;SDS011;8809;51.892;8.384;2022-11-14T09:17:39;16.60;;;11.80;;
17382;SDS011;8809;51.892;8.384;2022-11-14T09:20:13;18.45;;;10.90;;
17382;SDS011;8809;51.892;8.384;2022-11-14T09:22:40;16.23;;;10.93;;
17382;SDS011;8809;51.892;8.384;2022-11-14T09:25:07;15.80;;;10.65;;
17382;SDS011;8809;51.892;8.384;2022-11-14T09:27:34;15.95;;;11.05;;
17382;SDS011;8809;51.892;8.384;2022-11-14T09:30:15;16.85;;;10.20;;
17382;SDS011;8809;51.892;8.384;2022-11-14T09:32:42;15.45;;;10.63;;
17382;SDS011;8809;51.892;8.384;2022-11-14T09:35:09;15.80;;;10.57;;
17382;SDS011;8809;51.892;8.384;2022-11-14T09:37:37;14.93;;;10.23;;
17382;SDS011;8809;51.892;8.384;2022-11-14T09:40:04;16.33;;;10.63;;
17382;SDS011;8809;51.892;8.384;2022-11-14T09:42:46;16.65;;;11.20;;
17382;SDS011;8809;51.892;8.384;2022-11-14T09:45:24;13.82;;;9.60;;
17382;SDS011;8809;51.892;8.384;2022-11-14T09:47:52;12.85;;;9.40;;
17382;SDS011;8809;51.892;8.384;2022-11-14T09:50:23;11.40;;;8.10;;
17382;SDS011;8809;51.892;8.384;2022-11-14T09:52:54;12.43;;;8.75;;
17382;SDS011;8809;51.892;8.384;2022-11-14T09:55:26;13.70;;;9.38;;
17382;SDS011;8809;51.892;8.384;2022-11-14T09:57:55;13.35;;;10.15;;
17382;SDS011;8809;51.892;8.384;2022-11-14T10:00:25;16.92;;;10.90;;
17382;SDS011;8809;51.892;8.384;2022-11-14T10:02:57;14.63;;;9.98;;
17382;SDS011;8809;51.892;8.384;2022-11-14T10:05:46;13.55;;;9.52;;
17382;SDS011;8809;51.892;8.384;2022-11-14T10:08:25;13.10;;;9.25;;
17382;SDS011;8809;51.892;8.384;2022-11-14T10:11:06;15.85;;;10.65;;
17382;SDS011;8809;51.892;8.384;2022-11-14T10:13:38;14.70;;;9.85;;
17382;SDS011;8809;51.892;8.384;2022-11-14T10:16:18;14.35;;;10.18;;
17382;SDS011;8809;51.892;8.384;2022-11-14T10:18:56;15.50;;;10.40;;
17382;SDS011;8809;51.892;8.384;2022-11-14T10:21:43;14.45;;;10.00;;
17382;SDS011;8809;51.892;8.384;2022-11-14T10:27:13;13.30;;;9.50;;
17382;SDS011;8809;51.892;8.384;2022-11-14T10:32:47;14.80;;;9.68;;
17382;SDS011;8809;51.892;8.384;2022-11-14T10:35:30;13.57;;;10.15;;
17382;SDS011;8809;51.892;8.384;2022-11-14T10:38:08;13.88;;;9.95;;
17382;SDS011;8809;51.892;8.384;2022-11-14T10:40:40;15.48;;;10.63;;
17382;SDS011;8809;51.892;8.384;2022-11-14T10:43:16;14.98;;;10.82;;
17382;SDS011;8809;51.892;8.384;2022-11-14T10:45:49;16.27;;;10.32;;
17382;SDS011;8809;51.892;8.384;2022-11-14T10:48:24;14.95;;;10.93;;
17382;SDS011;8809;51.892;8.384;2022-11-14T10:50:56;15.93;;;10.90;;
17382;SDS011;8809;51.892;8.384;2022-11-14T10:53:28;15.60;;;9.88;;
17382;SDS011;8809;51.892;8.384;2022-11-14T10:56:03;15.63;;;10.82;;
17382;SDS011;8809;51.892;8.384;2022-11-14T10:58:31;14.75;;;11.07;;
17382;SDS011;8809;51.892;8.384;2022-11-14T11:04:11;15.45;;;10.63;;
17382;SDS011;8809;51.892;8.384;2022-11-14T11:06:44;15.52;;;10.65;;
17382;SDS011;8809;51.892;8.384;2022-11-14T11:09:12;15.63;;;9.93;;
17382;SDS011;8809;51.892;8.384;2022-11-14T11:11:59;13.75;;;10.45;;
17382;SDS011;8809;51.892;8.384;2022-11-14T11:14:27;13.10;;;9.82;;
17382;SDS011;8809;51.892;8.384;2022-11-14T11:17:14;12.88;;;9.07;;
17382;SDS011;8809;51.892;8.384;2022-11-14T11:19:48;12.05;;;9.00;;
17382;SDS011;8809;51.892;8.384;2022-11-14T11:22:28;12.88;;;9.15;;
17382;SDS011;8809;51.892;8.384;2022-11-14T11:25:02;11.88;;;8.98;;
17382;SDS011;8809;51.892;8.384;2022-11-14T11:28:04;13.30;;;9.35;;
17382;SDS011;8809;51.892;8.384;2022-11-14T11:30:33;12.50;;;9.57;;
17382;SDS011;8809;51.892;8.384;2022-11-14T11:33:16;14.63;;;10.85;;
17382;SDS011;8809;51.892;8.384;2022-11-14T11:35:51;12.85;;;10.57;;
17382;SDS011;8809;51.892;8.384;2022-11-14T11:38:22;13.00;;;9.55;;
17382;SDS011;8809;51.892;8.384;2022-11-14T11:40:52;12.23;;;9.27;;
17382;SDS011;8809;51.892;8.384;2022-11-14T11:43:25;14.75;;;10.13;;
17382;SDS011;8809;51.892;8.384;2022-11-14T11:45:57;12.77;;;9.88;;
17382;SDS011;8809;51.892;8.384;2022-11-14T11:48:30;13.23;;;10.18;;
17382;SDS011;8809;51.892;8.384;2022-11-14T11:51:05;12.32;;;9.88;;
17382;SDS011;8809;51.892;8.384;2022-11-14T11:53:37;11.85;;;8.65;;
17382;SDS011;8809;51.892;8.384;2022-11-14T11:56:08;10.68;;;8.48;;
17382;SDS011;8809;51.892;8.384;2022-11-14T11:58:40;10.73;;;7.72;;
17382;SDS011;8809;51.892;8.384;2022-11-14T12:01:11;9.75;;;7.38;;
17382;SDS011;8809;51.892;8.384;2022-11-14T12:03:39;9.25;;;7.38;;
17382;SDS011;8809;51.892;8.384;2022-11-14T12:06:12;9.48;;;7.05;;
17382;SDS011;8809;51.892;8.384;2022-11-14T12:08:44;8.70;;;6.65;;
17382;SDS011;8809;51.892;8.384;2022-11-14T12:11:21;8.55;;;6.53;;
17382;SDS011;8809;51.892;8.384;2022-11-14T12:14:11;7.68;;;6.18;;
17382;SDS011;8809;51.892;8.384;2022-11-14T12:16:58;9.73;;;7.15;;
17382;SDS011;8809;51.892;8.384;2022-11-14T12:23:04;9.18;;;6.90;;
17382;SDS011;8809;51.892;8.384;2022-11-14T12:25:55;11.43;;;8.20;;
17382;SDS011;8809;51.892;8.384;2022-11-14T12:28:40;10.00;;;7.55;;
17382;SDS011;8809;51.892;8.384;2022-11-14T12:31:24;10.73;;;8.25;;
17382;SDS011;8809;51.892;8.384;2022-11-14T12:33:56;10.02;;;7.72;;
17382;SDS011;8809;51.892;8.384;2022-11-14T12:36:26;10.07;;;7.88;;
17382;SDS011;8809;51.892;8.384;2022-11-14T12:38:57;11.05;;;8.18;;
17382;SDS011;8809;51.892;8.384;2022-11-14T12:41:26;9.95;;;8.43;;
17382;SDS011;8809;51.892;8.384;2022-11-14T12:49:57;10.10;;;7.93;;
17382;SDS011;8809;51.892;8.384;2022-11-14T12:52:46;10.85;;;8.13;;
17382;SDS011;8809;51.892;8.384;2022-11-14T12:58:42;13.23;;;8.60;;
17382;SDS011;8809;51.892;8.384;2022-11-14T13:01:22;11.32;;;8.18;;
17382;SDS011;8809;51.892;8.384;2022-11-14T13:04:04;11.32;;;8.07;;
17382;SDS011;8809;51.892;8.384;2022-11-14T13:06:44;9.52;;;7.75;;
17382;SDS011;8809;51.892;8.384;2022-11-14T13:12:25;10.48;;;7.90;;
17382;SDS011;8809;51.892;8.384;2022-11-14T13:15:19;9.07;;;7.18;;
17382;SDS011;8809;51.892;8.384;2022-11-14T13:18:11;9.75;;;7.18;;
17382;SDS011;8809;51.892;8.384;2022-11-14T13:21:04;11.02;;;8.07;;
17382;SDS011;8809;51.892;8.384;2022-11-14T13:23:55;9.55;;;7.05;;
17382;SDS011;8809;51.892;8.384;2022-11-14T13:26:39;8.98;;;7.32;;
17382;SDS011;8809;51.892;8.384;2022-11-14T13:41:30;9.52;;;7.22;;
17382;SDS011;8809;51.892;8.384;2022-11-14T13:44:12;9.57;;;7.25;;
17382;SDS011;8809;51.892;8.384;2022-11-14T13:47:10;8.93;;;7.03;;
17382;SDS011;8809;51.892;8.384;2022-11-14T13:49:59;10.40;;;7.50;;
17382;SDS011;8809;51.892;8.384;2022-11-14T13:52:49;10.05;;;7.57;;
17382;SDS011;8809;51.892;8.384;2022-11-14T13:55:20;10.85;;;7.45;;
17382;SDS011;8809;51.892;8.384;2022-11-14T13:57:52;11.13;;;7.00;;
17382;SDS011;8809;51.892;8.384;2022-11-14T14:00:41;9.88;;;7.78;;
17382;SDS011;8809;51.892;8.384;2022-11-14T14:03:23;8.77;;;6.88;;
17382;SDS011;8809;51.892;8.384;2022-11-14T14:06:10;10.18;;;7.85;;
17382;SDS011;8809;51.892;8.384;2022-11-14T14:08:53;10.38;;;7.88;;
17382;SDS011;8809;51.892;8.384;2022-11-14T14:11:34;9.57;;;7.38;;
17382;SDS011;8809;51.892;8.384;2022-11-14T14:14:17;10.23;;;7.45;;
17382;SDS011;8809;51.892;8.384;2022-11-14T14:16:57;9.48;;;7.63;;
17382;SDS011;8809;51.892;8.384;2022-11-14T14:19:36;10.05;;;7.57;;
17382;SDS011;8809;51.892;8.384;2022-11-14T14:22:14;9.10;;;6.70;;
17382;SDS011;8809;51.892;8.384;2022-11-14T14:24:52;10.40;;;7.28;;
17382;SDS011;8809;51.892;8.384;2022-11-14T14:27:27;9.50;;;7.65;;
17382;SDS011;8809;51.892;8.384;2022-11-14T14:30:12;9.32;;;6.90;;
17382;SDS011;8809;51.892;8.384;2022-11-14T14:32:42;12.02;;;8.52;;
17382;SDS011;8809;51.892;8.384;2022-11-14T14:35:21;9.15;;;6.57;;
17382;SDS011;8809;51.892;8.384;2022-11-14T14:37:49;8.77;;;6.65;;
17382;SDS011;8809;51.892;8.384;2022-11-14T14:40:21;8.68;;;6.95;;
17382;SDS011;8809;51.892;8.384;2022-11-14T14:42:50;8.38;;;6.70;;
17382;SDS011;8809;51.892;8.384;2022-11-14T14:45:19;9.88;;;7.50;;
17382;SDS011;8809;51.892;8.384;2022-11-14T14:47:48;8.48;;;6.22;;
17382;SDS011;8809;51.892;8.384;2022-11-14T14:50:18;9.98;;;7.20;;
17382;SDS011;8809;51.892;8.384;2022-11-14T14:52:54;10.45;;;7.25;;
17382;SDS011;8809;51.892;8.384;2022-11-14T14:55:24;10.13;;;7.00;;
17382;SDS011;8809;51.892;8.384;2022-11-14T14:57:51;8.38;;;6.38;;
17382;SDS011;8809;51.892;8.384;2022-11-14T15:00:19;11.35;;;7.20;;
17382;SDS011;8809;51.892;8.384;2022-11-14T15:02:50;11.70;;;8.13;;
17382;SDS011;8809;51.892;8.384;2022-11-14T15:05:22;8.68;;;6.50;;
17382;SDS011;8809;51.892;8.384;2022-11-14T15:07:51;10.93;;;7.68;;
17382;SDS011;8809;51.892;8.384;2022-11-14T15:10:23;9.65;;;6.82;;
17382;SDS011;8809;51.892;8.384;2022-11-14T15:12:53;11.80;;;7.63;;
17382;SDS011;8809;51.892;8.384;2022-11-14T15:15:21;9.23;;;7.00;;
17382;SDS011;8809;51.892;8.384;2022-11-14T15:17:50;9.05;;;6.70;;
17382;SDS011;8809;51.892;8.384;2022-11-14T15:20:19;8.80;;;6.50;;
17382;SDS011;8809;51.892;8.384;2022-11-14T15:23:04;7.93;;;6.53;;
17382;SDS011;8809;51.892;8.384;2022-11-14T15:25:33;10.73;;;7.70;;
17382;SDS011;8809;51.892;8.384;2022-11-14T15:28:00;8.68;;;6.97;;
17382;SDS011;8809;51.892;8.384;2022-11-14T15:30:28;9.05;;;6.90;;
17382;SDS011;8809;51.892;8.384;2022-11-14T15:32:59;8.75;;;7.00;;
17382;SDS011;8809;51.892;8.384;2022-11-14T15:35:29;8.57;;;6.30;;
17382;SDS011;8809;51.892;8.384;2022-11-14T15:38:01;8.25;;;5.80;;
17382;SDS011;8809;51.892;8.384;2022-11-14T15:40:30;6.80;;;5.40;;
17382;SDS011;8809;51.892;8.384;2022-11-14T15:42:59;7.80;;;6.25;;
17382;SDS011;8809;51.892;8.384;2022-11-14T15:45:28;8.20;;;6.40;;
17382;SDS011;8809;51.892;8.384;2022-11-14T15:48:10;7.22;;;5.45;;
17382;SDS011;8809;51.892;8.384;2022-11-14T15:50:41;7.93;;;5.60;;
17382;SDS011;8809;51.892;8.384;2022-11-14T15:53:15;6.50;;;5.10;;
17382;SDS011;8809;51.892;8.384;2022-11-14T15:55:47;6.75;;;5.22;;
17382;SDS011;8809;51.892;8.384;2022-11-14T15:58:15;6.30;;;4.97;;
17382;SDS011;8809;51.892;8.384;2022-11-14T16:00:43;6.53;;;4.60;;
17382;SDS011;8809;51.892;8.384;2022-11-14T16:03:14;6.43;;;4.95;;
17382;SDS011;8809;51.892;8.384;2022-11-14T16:05:43;6.32;;;4.72;;
17382;SDS011;8809;51.892;8.384;2022-11-14T16:08:11;6.93;;;4.75;;
17382;SDS011;8809;51.892;8.384;2022-11-14T16:10:38;6.80;;;5.20;;
17382;SDS011;8809;51.892;8.384;2022-11-14T16:13:05;7.03;;;4.95;;